Batumi International Airport
UGSB : rendu visible

Aérodrome :











RETROUVEZ-NOUS SUR...

 
LOGIN :

S'inscrire | Disclaimer

   EN    FR    IT 

 









Légende :    VFR   VFR Marginal   IFR   IFR Intensif   IFR Très Intensif
Visi : 
Plafond : 
>= 8 km
>= 3000ft
5 à 8 km
1000 à 3000 ft
1500m à 5 km
500 à 1000 ft
800 à 1500m
200 à 500 ft
< 800m
< 200 ft
Symboles :   Orages  Brouillard  Fortes neiges  Fortes précipitations  Vent > 20 kt







- Altitude de l'aérodrome : 105 ft
- Code IATA : BUS


UGSB - Batumi International

DERNIER METAR :
  • 240900Z 14012KT CAVOK 24/11 Q1015 R13/CLRD70 NOSIG

METARs EXPIRÉS :
  • 240830Z 13014KT CAVOK 23/11 Q1016 R13/70D NOSIG
  • 240800Z 14015KT CAVOK 22/11 Q1015 R13/70D NOSIG
  • 240730Z 14017KT CAVOK 21/10 Q1015 R13/CLRD70 NOSIG
  • 240700Z 14016KT CAVOK 21/11 Q1015 R13/70D NOSIG
  • 240630Z 14016KT CAVOK 19/10 Q1016 R13/70D NOSIG

TAF TAF UGSB
Valide du 24 à 06h jusqu'au 25 à 06h UTC


240500Z 2406/2506 13016KT 9999 FEW025 BKN070 TX24/2411Z TN15/2501Z
BECMG 2408/2410 25007KT
BECMG 2415/1417 13014KT
FIR UGGG / Asie



MET'MAP, la Météo Aéronautique d'un coup d'oeil ! - Copyright ORBIFLY Décembre 2007 - Disclaimer

ORBIFLY MET'MAP TEAM :

Programmation & Développement : Alexandra Zaïnal
Conception & Développement : Baudouin d'Aumeries
Co-Programmation & Développement : Marc-Olivier Méhu
Soutien technique & logistique : Manuel Goepfert

Contact : metmap@orbifly.com




SOURCES & CREDITS :

   NOAA       Earth
Advisory